createdAt,value
2018-07-05T00:01:57.198Z,3.60
2018-07-05T00:04:41.243Z,5.07
2018-07-05T00:07:23.428Z,14.03
2018-07-05T00:10:05.645Z,14.30
2018-07-05T00:12:47.342Z,11.83
2018-07-05T00:15:30.568Z,13.43
2018-07-05T00:18:15.848Z,3.53
2018-07-05T00:20:58.863Z,3.53
2018-07-05T00:23:41.157Z,3.67
2018-07-05T00:26:56.424Z,5.83
2018-07-05T00:29:38.961Z,3.67
2018-07-05T00:32:21.048Z,12.40
2018-07-05T00:38:22.946Z,11.00
2018-07-05T00:41:05.251Z,12.73
2018-07-05T00:43:48.790Z,5.37
2018-07-05T00:46:30.681Z,4.63
2018-07-05T00:49:13.397Z,4.93
2018-07-05T00:51:55.057Z,7.00
2018-07-05T00:54:37.396Z,3.77
2018-07-05T00:57:18.981Z,3.73
2018-07-05T01:00:01.082Z,4.03
2018-07-05T01:02:43.285Z,5.23
2018-07-05T01:05:26.513Z,3.23
2018-07-05T01:08:09.023Z,4.77
2018-07-05T01:10:51.226Z,3.53
2018-07-05T01:13:34.351Z,5.20
2018-07-05T01:16:15.632Z,4.40
2018-07-05T01:18:58.146Z,3.27
2018-07-05T01:21:41.072Z,3.90
2018-07-05T01:24:23.470Z,5.40
2018-07-05T01:27:05.776Z,3.77
2018-07-05T01:29:47.890Z,12.83
2018-07-05T01:32:29.056Z,3.80
2018-07-05T01:35:10.751Z,3.73
2018-07-05T01:37:53.872Z,3.87
2018-07-05T01:40:36.061Z,12.90
2018-07-05T01:43:17.560Z,4.10
2018-07-05T01:46:00.547Z,11.97
2018-07-05T01:48:43.504Z,7.07
2018-07-05T01:51:25.506Z,4.00
2018-07-05T01:54:07.704Z,4.07
2018-07-05T01:56:49.786Z,3.90
2018-07-05T01:59:32.625Z,4.53
2018-07-05T02:02:15.646Z,3.53
2018-07-05T02:04:57.617Z,3.43
2018-07-05T02:07:40.198Z,4.47
2018-07-05T02:10:57.182Z,3.40
2018-07-05T02:13:39.684Z,3.77
2018-07-05T02:16:23.116Z,5.27
2018-07-05T02:19:07.370Z,3.80
2018-07-05T02:21:50.333Z,3.40
2018-07-05T02:24:32.676Z,4.97
2018-07-05T02:27:15.006Z,3.83
2018-07-05T02:29:57.617Z,3.60
2018-07-05T02:36:20.188Z,3.63
2018-07-05T02:42:10.805Z,4.13
2018-07-05T02:44:53.935Z,5.20
2018-07-05T02:47:38.286Z,4.20
2018-07-05T02:50:21.256Z,4.00
2018-07-05T02:53:03.581Z,3.93
2018-07-05T02:55:45.098Z,4.03
2018-07-05T02:58:27.198Z,3.97
2018-07-05T03:01:09.709Z,4.50
2018-07-05T03:03:52.644Z,4.23
2018-07-05T03:06:35.241Z,4.57
2018-07-05T03:09:19.631Z,4.67
2018-07-05T03:12:02.721Z,6.43
2018-07-05T03:14:45.776Z,5.33
2018-07-05T03:17:28.140Z,6.20
2018-07-05T03:20:10.557Z,5.20
2018-07-05T03:22:52.557Z,5.13
2018-07-05T03:25:43.053Z,5.90
2018-07-05T03:28:26.178Z,7.90
2018-07-05T03:31:09.927Z,5.70
2018-07-05T03:33:53.046Z,6.50
2018-07-05T03:36:37.707Z,6.33
2018-07-05T03:39:20.623Z,6.03
2018-07-05T03:42:11.727Z,6.50
2018-07-05T03:44:58.136Z,6.50
2018-07-05T03:47:42.228Z,6.67
2018-07-05T03:50:27.522Z,6.63
2018-07-05T03:53:19.898Z,7.30
2018-07-05T03:56:05.484Z,8.80
2018-07-05T03:58:49.842Z,6.73
2018-07-05T04:01:36.448Z,7.73
2018-07-05T04:04:18.031Z,8.23
2018-07-05T04:07:02.239Z,7.13
2018-07-05T04:09:48.074Z,7.23
2018-07-05T04:12:30.812Z,8.53
2018-07-05T04:15:16.268Z,7.00
2018-07-05T04:17:59.701Z,6.57
2018-07-05T04:20:43.724Z,7.20
2018-07-05T04:23:37.223Z,6.10
2018-07-05T04:26:19.288Z,7.00
2018-07-05T04:29:01.924Z,6.90
2018-07-05T04:31:44.025Z,7.53
2018-07-05T04:34:27.147Z,6.63
2018-07-05T04:37:09.445Z,6.87
2018-07-05T04:39:51.862Z,6.80
2018-07-05T04:42:33.962Z,6.87
2018-07-05T04:45:17.906Z,8.43
2018-07-05T04:48:00.764Z,6.30
2018-07-05T04:50:43.235Z,7.67
2018-07-05T04:53:26.364Z,6.57
2018-07-05T04:56:09.796Z,5.93
2018-07-05T04:58:52.704Z,5.83
2018-07-05T05:01:35.009Z,5.97
2018-07-05T05:04:16.504Z,6.50
2018-07-05T05:07:14.485Z,5.90
2018-07-05T05:10:24.226Z,7.17
2018-07-05T05:13:07.353Z,5.07
2018-07-05T05:15:50.275Z,4.70
2018-07-05T05:18:33.088Z,5.10
2018-07-05T05:21:16.319Z,6.50
2018-07-05T05:23:58.620Z,4.93
2018-07-05T05:27:00.382Z,4.67
2018-07-05T05:29:43.302Z,4.70
2018-07-05T05:32:26.529Z,4.87
2018-07-05T05:35:24.713Z,7.47
2018-07-05T05:38:06.909Z,8.03
2018-07-05T05:40:49.320Z,4.93
2018-07-05T05:43:31.521Z,3.83
2018-07-05T05:46:13.829Z,4.73
2018-07-05T05:48:56.341Z,5.90
2018-07-05T05:51:38.336Z,4.10
2018-07-05T05:54:20.525Z,3.73
2018-07-05T05:57:03.739Z,5.00
2018-07-05T05:59:46.183Z,4.00
2018-07-05T06:02:28.348Z,4.03
2018-07-05T06:05:09.865Z,4.30
2018-07-05T06:07:51.963Z,3.60
2018-07-05T06:10:34.474Z,3.80
2018-07-05T06:13:16.479Z,4.47
2018-07-05T06:15:58.749Z,3.93
2018-07-05T06:18:40.121Z,4.90
2018-07-05T06:21:22.365Z,6.53
2018-07-05T06:24:04.670Z,3.87
2018-07-05T06:26:46.976Z,4.00
2018-07-05T06:29:29.168Z,3.83
2018-07-05T06:32:11.587Z,4.67
2018-07-05T06:34:53.790Z,3.37
2018-07-05T06:37:36.513Z,5.20
2018-07-05T06:40:18.313Z,6.13
2018-07-05T06:43:07.874Z,4.57
2018-07-05T06:45:51.840Z,3.70
2018-07-05T06:48:35.129Z,4.27
2018-07-05T06:51:17.660Z,3.30
2018-07-05T06:53:59.861Z,4.50
2018-07-05T06:56:42.048Z,3.73
2018-07-05T07:02:21.116Z,4.53
2018-07-05T07:05:04.137Z,3.23
2018-07-05T07:07:46.647Z,4.63
2018-07-05T07:10:28.850Z,4.10
2018-07-05T07:13:11.361Z,4.37
2018-07-05T07:15:53.288Z,6.03
2018-07-05T07:18:35.459Z,4.70
2018-07-05T07:21:18.073Z,4.10
2018-07-05T07:24:02.759Z,5.67
2018-07-05T07:26:44.428Z,3.90
2018-07-05T07:29:26.396Z,4.53
2018-07-05T07:32:08.932Z,3.63
2018-07-05T07:34:51.035Z,3.57
2018-07-05T07:37:33.274Z,4.10
2018-07-05T07:40:15.542Z,6.80
2018-07-05T07:42:46.072Z,5.53
2018-07-05T07:45:50.300Z,3.90
2018-07-05T07:48:20.513Z,4.10
2018-07-05T07:50:50.517Z,6.23
2018-07-05T07:53:21.060Z,4.63
2018-07-05T07:58:43.418Z,4.13
2018-07-05T08:01:14.469Z,3.60
2018-07-05T08:03:43.867Z,4.10
2018-07-05T08:06:15.320Z,4.70
2018-07-05T08:08:46.278Z,4.27
2018-07-05T08:11:16.894Z,4.23
2018-07-05T08:13:47.419Z,5.10
2018-07-05T08:16:18.254Z,4.43
2018-07-05T08:18:49.369Z,4.73
2018-07-05T08:21:18.899Z,3.50
2018-07-05T08:23:49.225Z,4.50
2018-07-05T08:26:21.108Z,3.67
2018-07-05T08:28:52.535Z,5.50
2018-07-05T08:31:23.814Z,4.53
2018-07-05T08:33:55.925Z,5.47
2018-07-05T08:36:29.351Z,4.33
2018-07-05T08:38:59.876Z,4.03
2018-07-05T08:41:29.080Z,4.10
2018-07-05T08:43:58.068Z,4.27
2018-07-05T08:46:30.549Z,4.93
2018-07-05T19:05:09.473Z,4.10
2018-07-05T19:07:48.658Z,4.23
2018-07-05T19:10:27.655Z,3.17
2018-07-05T19:13:06.539Z,2.00
2018-07-05T19:16:15.871Z,2.40
2018-07-05T19:18:55.180Z,1.90
2018-07-05T19:21:34.324Z,2.37
2018-07-05T19:24:13.591Z,5.43
2018-07-05T19:26:54.213Z,2.43
2018-07-05T19:29:46.737Z,1.97
2018-07-05T19:32:29.284Z,2.30
2018-07-05T19:52:10.238Z,2.17
2018-07-05T19:54:49.235Z,2.43
2018-07-05T19:57:29.133Z,2.40
2018-07-05T20:00:17.559Z,4.27
2018-07-05T20:02:56.573Z,3.50
2018-07-05T20:05:35.464Z,2.10
2018-07-05T20:08:14.311Z,2.23
2018-07-05T20:11:03.701Z,2.77
2018-07-05T20:13:45.665Z,2.60
2018-07-05T20:16:24.789Z,4.53
2018-07-05T20:19:06.589Z,2.40
2018-07-05T20:21:45.481Z,2.40
2018-07-05T20:24:24.373Z,2.30
2018-07-05T20:27:03.193Z,2.57
2018-07-05T20:29:42.054Z,3.90
2018-07-05T20:32:20.933Z,2.30
2018-07-05T20:34:59.869Z,2.30
2018-07-05T20:37:38.709Z,2.63
2018-07-05T20:40:17.521Z,2.60
2018-07-05T20:42:56.423Z,3.00
2018-07-05T20:45:35.398Z,2.70
2018-07-05T20:48:14.412Z,5.23
2018-07-05T20:50:53.469Z,4.63
2018-07-05T20:53:34.713Z,2.40
2018-07-05T20:56:13.633Z,2.60
2018-07-05T20:58:52.709Z,1.93
2018-07-05T21:01:31.564Z,1.53
2018-07-05T21:04:10.505Z,1.67
2018-07-05T21:06:49.884Z,1.57
2018-07-05T21:09:28.721Z,1.50
2018-07-05T21:12:20.677Z,1.77
2018-07-05T21:18:20.534Z,1.83
2018-07-05T21:20:59.522Z,2.07
2018-07-05T21:23:38.441Z,1.83
2018-07-05T21:26:17.437Z,2.53
2018-07-05T21:28:56.509Z,1.77
2018-07-05T21:31:44.477Z,2.83
2018-07-05T21:34:23.389Z,1.80
2018-07-05T21:37:04.045Z,2.33
2018-07-05T21:39:43.201Z,2.57
2018-07-05T21:42:22.225Z,2.57
2018-07-05T21:45:01.182Z,2.63
2018-07-05T21:47:40.205Z,2.57
2018-07-05T21:50:19.221Z,3.23
2018-07-05T21:52:58.459Z,4.47
2018-07-05T21:55:37.470Z,3.07
2018-07-05T21:58:16.607Z,4.70
2018-07-05T22:00:55.441Z,3.80
2018-07-05T22:03:34.286Z,2.83
2018-07-05T22:06:13.364Z,3.40
2018-07-05T22:08:52.464Z,3.20
2018-07-05T22:11:31.446Z,3.03
2018-07-05T22:14:10.437Z,2.90
2018-07-05T22:16:54.869Z,2.90
2018-07-05T22:19:39.469Z,2.63
2018-07-05T22:22:24.042Z,3.53
2018-07-05T22:25:08.597Z,4.17
2018-07-05T22:27:55.510Z,3.03
2018-07-05T22:30:40.737Z,4.40
2018-07-05T22:33:19.591Z,4.90
2018-07-05T22:35:58.386Z,3.70
2018-07-05T22:38:37.322Z,3.60
2018-07-05T22:41:16.969Z,4.67
2018-07-05T22:43:56.385Z,3.67
2018-07-05T22:46:35.309Z,5.47
2018-07-05T22:49:14.332Z,3.60
2018-07-05T22:51:53.237Z,3.87
2018-07-05T22:54:32.149Z,3.60
2018-07-05T22:57:10.965Z,3.77
2018-07-05T22:59:49.945Z,3.20
2018-07-05T23:02:28.875Z,3.93
2018-07-05T23:05:07.769Z,3.13
2018-07-05T23:07:46.822Z,3.83
2018-07-05T23:10:25.841Z,3.43
2018-07-05T23:13:34.891Z,3.37
2018-07-05T23:16:14.582Z,3.70
2018-07-05T23:18:53.393Z,4.10
2018-07-05T23:21:32.266Z,3.53
2018-07-05T23:24:11.097Z,3.97
2018-07-05T23:26:50.054Z,3.97
2018-07-05T23:29:29.003Z,4.23
2018-07-05T23:32:08.041Z,3.47
2018-07-05T23:34:46.975Z,3.40
2018-07-05T23:37:25.861Z,4.57
2018-07-05T23:43:22.881Z,3.57
2018-07-05T23:46:01.786Z,3.80
2018-07-05T23:48:40.637Z,3.70
2018-07-05T23:51:22.317Z,3.47
2018-07-05T23:54:01.273Z,4.83
2018-07-05T23:56:40.094Z,4.47
2018-07-05T23:59:18.983Z,4.07
